Time;durP1;ratioP1;P1;durP2;ratioP2;P2;SDS_P1;SDS_P2;PMS_P1;PMS_P2;Temp;Humidity;BMP_temperature;BMP_pressure;BME280_temperature;BME280_humidity;BME280_pressure;Samples;Min_cycle;Max_cycle;Signal;HPM_P1;HPM_P2
2022/01/06 00:01:09;;;;;;;3.05;1.30;;;;;;;3.89;66.13;98798.03;4844785;29;20053;-89
2022/01/06 00:03:39;;;;;;;4.70;1.33;;;;;;;3.88;65.55;98796.34;4845277;29;20076;-89
2022/01/06 00:06:11;;;;;;;2.85;1.25;;;;;;;3.59;65.72;98772.47;4860801;29;20130;-89
2022/01/06 00:08:45;;;;;;;3.50;1.15;;;;;;;3.79;65.75;98808.84;4847623;29;20530;-89
2022/01/06 00:11:22;;;;;;;4.20;1.55;;;;;;;3.78;66.32;98793.69;4848064;29;20397;-89
2022/01/06 00:14:00;;;;;;;5.15;2.10;;;;;;;3.78;66.46;98797.06;4864086;29;20073;-89
2022/01/06 00:16:40;;;;;;;3.60;1.67;;;;;;;3.82;65.58;98803.84;4864054;29;20509;-88
2022/01/06 00:24:33;;;;;;;3.10;1.13;;;;;;;3.60;65.76;98750.59;4863934;29;20053;-89
2022/01/06 00:27:05;;;;;;;4.03;1.85;;;;;;;3.42;66.09;98741.13;4847458;29;20415;-89
2022/01/06 00:29:36;;;;;;;3.65;1.40;;;;;;;3.79;66.17;98808.84;4863732;29;20046;-89
2022/01/06 00:32:10;;;;;;;5.03;1.80;;;;;;;3.84;66.16;98807.22;4832372;29;20104;-89
2022/01/06 00:34:41;;;;;;;2.20;1.25;;;;;;;3.83;66.17;98815.66;4863986;29;20497;-89
2022/01/06 00:37:11;;;;;;;2.25;1.33;;;;;;;3.75;65.87;98811.31;4863589;29;20568;-89
2022/01/06 00:39:42;;;;;;;3.25;1.27;;;;;;;3.71;66.64;98815.50;4847405;29;20063;-89
2022/01/06 00:42:16;;;;;;;2.65;1.35;;;;;;;3.74;66.86;98800.38;4847230;29;20137;-90
2022/01/06 00:44:49;;;;;;;3.90;1.75;;;;;;;3.05;66.67;98691.06;4846886;29;20394;-89
2022/01/06 00:47:20;;;;;;;2.35;1.30;;;;;;;3.19;66.14;98747.56;4863234;29;20076;-90
2022/01/06 00:49:54;;;;;;;2.92;1.73;;;;;;;3.50;67.44;98810.19;4817162;29;20065;-89
2022/01/06 00:52:26;;;;;;;2.92;1.23;;;;;;;3.30;67.89;98796.44;4863347;29;20512;-90
2022/01/06 00:55:00;;;;;;;2.70;1.23;;;;;;;2.86;67.77;98721.88;4847190;29;20073;-90
2022/01/06 00:57:31;;;;;;;4.43;1.40;;;;;;;3.10;68.20;98777.66;4863290;29;20061;-90
2022/01/06 01:00:02;;;;;;;3.35;1.40;;;;;;;3.18;69.00;98796.28;4863103;29;20049;-89
2022/01/06 01:02:32;;;;;;;3.22;1.33;;;;;;;3.40;68.44;98828.53;4863115;29;20504;-90
2022/01/06 01:05:06;;;;;;;2.88;1.25;;;;;;;3.27;68.86;98802.28;4862372;29;20535;-89
2022/01/06 01:07:36;;;;;;;3.13;1.20;;;;;;;3.38;68.65;98810.84;4847057;29;20060;-89
2022/01/06 01:10:10;;;;;;;4.80;1.20;;;;;;;2.79;68.23;98692.41;4846187;29;20057;-89
2022/01/06 01:12:48;;;;;;;2.60;1.25;;;;;;;2.79;68.64;98710.03;4863083;29;20048;-89
2022/01/06 01:15:21;;;;;;;3.90;1.20;;;;;;;3.41;68.71;98820.13;4846861;29;20377;-89
2022/01/06 01:17:53;;;;;;;3.63;1.52;;;;;;;3.45;69.02;98815.97;4831961;29;20449;-89
2022/01/06 01:20:26;;;;;;;2.75;1.20;;;;;;;3.30;69.04;98782.19;4862868;29;20084;-90
2022/01/06 01:22:56;;;;;;;3.45;1.10;;;;;;;3.17;68.77;98774.41;4863195;29;20054;-90
2022/01/06 01:25:31;;;;;;;5.20;1.30;;;;;;;3.24;68.36;98763.56;4862739;29;20077;-89
2022/01/06 01:28:07;;;;;;;2.92;1.35;;;;;;;3.58;67.59;98823.72;4862714;29;20412;-89
2022/01/06 01:30:52;;;;;;;2.42;1.20;;;;;;;3.50;67.80;98801.75;4846312;29;20461;-88
2022/01/06 01:33:37;;;;;;;2.45;1.30;;;;;;;3.37;68.30;98778.06;4846142;29;20064;-89
2022/01/06 01:36:10;;;;;;;1.80;1.10;;;;;;;3.62;67.86;98824.63;4862598;29;20053;-90
2022/01/06 01:38:42;;;;;;;4.50;1.33;;;;;;;3.55;68.73;98817.81;4862829;29;20500;-89
2022/01/06 01:41:12;;;;;;;3.45;1.45;;;;;;;3.61;68.22;98823.75;4846049;29;20061;-88
2022/01/06 01:43:48;;;;;;;3.95;1.50;;;;;;;3.62;68.23;98825.47;4846038;29;20053;-88
2022/01/06 01:46:28;;;;;;;3.47;1.50;;;;;;;3.64;68.43;98833.06;4845907;29;20053;-88
2022/01/06 01:51:54;;;;;;;3.45;1.33;;;;;;;3.62;67.78;98829.66;4862194;29;20056;-89
2022/01/06 01:54:27;;;;;;;4.60;1.60;;;;;;;3.52;67.33;98808.53;4846052;29;20076;-88
2022/01/06 01:56:58;;;;;;;2.92;1.27;;;;;;;3.41;67.38;98779.78;4846234;29;20420;-87
2022/01/06 01:59:32;;;;;;;2.58;1.20;;;;;;;3.75;67.93;98832.34;4862282;29;20117;-88
2022/01/06 02:02:06;;;;;;;3.22;1.48;;;;;;;3.63;67.81;98812.00;4845715;29;20041;-90
2022/01/06 02:04:39;;;;;;;1.95;1.30;;;;;;;3.18;67.59;98748.38;4846045;29;20054;-89
2022/01/06 02:07:12;;;;;;;3.78;1.52;;;;;;;3.50;67.97;98800.09;4830821;29;20059;-89
2022/01/06 02:09:45;;;;;;;2.50;1.30;;;;;;;3.61;68.04;98833.00;4846107;29;20069;-88
2022/01/06 02:12:41;;;;;;;3.67;1.40;;;;;;;3.60;68.06;98824.59;4861905;29;20050;-89
2022/01/06 02:15:14;;;;;;;2.13;1.13;;;;;;;3.37;67.85;98789.00;4861993;29;20069;-89
2022/01/06 02:17:49;;;;;;;2.92;1.27;;;;;;;3.49;67.63;98805.94;4862388;29;20046;-89
2022/01/06 02:20:24;;;;;;;2.08;1.20;;;;;;;3.70;67.66;98838.16;4845940;29;20083;-89
2022/01/06 02:22:58;;;;;;;2.72;1.25;;;;;;;3.75;68.22;98832.34;4861633;29;20056;-88
2022/01/06 02:25:33;;;;;;;3.20;1.40;;;;;;;3.69;67.81;98827.25;4862269;29;20052;-89
2022/01/06 02:28:04;;;;;;;3.08;1.20;;;;;;;3.35;68.02;98769.63;4861779;29;20098;-89
2022/01/06 02:30:36;;;;;;;2.80;1.30;;;;;;;3.59;68.74;98820.38;4861771;29;20050;-89
2022/01/06 02:33:10;;;;;;;4.57;1.20;;;;;;;3.34;68.06;98783.03;4830315;29;20132;-89
2022/01/06 02:35:47;;;;;;;3.58;1.30;;;;;;;3.15;68.26;98749.19;4861667;29;20105;-89
2022/01/06 02:38:18;;;;;;;3.53;1.20;;;;;;;3.51;68.38;98816.91;4861785;29;20050;-89
2022/01/06 02:40:52;;;;;;;1.98;1.10;;;;;;;3.36;68.22;98787.28;4845615;29;20548;-88
2022/01/06 02:43:26;;;;;;;3.15;1.70;;;;;;;3.39;67.98;98796.56;4861614;29;20105;-88
2022/01/06 02:45:59;;;;;;;2.30;1.27;;;;;;;3.60;68.24;98847.28;4861671;29;20053;-89
2022/01/06 02:48:32;;;;;;;2.40;1.30;;;;;;;3.49;68.45;98833.69;4845279;29;20053;-89
2022/01/06 02:51:09;;;;;;;3.40;1.42;;;;;;;3.47;68.58;98835.34;4845252;29;20113;-89
2022/01/06 02:53:38;;;;;;;2.03;1.13;;;;;;;3.39;68.19;98811.69;4845176;29;20143;-89
2022/01/06 02:56:08;;;;;;;3.40;1.23;;;;;;;3.55;68.23;98853.94;4861662;29;20102;-90
2022/01/06 02:58:47;;;;;;;2.63;1.15;;;;;;;3.22;68.13;98815.66;4845445;29;20064;-90
2022/01/06 03:04:55;;;;;;;2.22;1.20;;;;;;;2.75;68.64;98773.78;4861975;29;20058;-89
2022/01/06 03:07:27;;;;;;;2.08;1.20;;;;;;;2.58;69.01;98746.69;4861608;29;20049;-90
2022/01/06 03:10:02;;;;;;;3.05;1.45;;;;;;;2.87;69.56;98809.25;4845026;29;20055;-90
2022/01/06 03:12:39;;;;;;;4.95;1.20;;;;;;;3.23;70.03;98850.13;4829928;29;20052;-89
2022/01/06 03:15:10;;;;;;;3.13;1.10;;;;;;;3.20;69.62;98830.78;4861293;29;20144;-88
2022/01/06 03:17:43;;;;;;;3.65;1.48;;;;;;;3.03;70.19;98806.13;4861316;29;20393;-88
2022/01/06 03:20:18;;;;;;;3.20;1.13;;;;;;;3.29;70.00;98855.25;4845021;29;20045;-88
2022/01/06 03:22:51;;;;;;;3.03;1.30;;;;;;;3.27;71.08;98851.88;4844987;29;20055;-88
2022/01/06 03:25:24;;;;;;;2.47;1.67;;;;;;;3.01;70.87;98808.63;4861296;29;20057;-89
2022/01/06 03:27:54;;;;;;;2.53;1.10;;;;;;;2.77;70.56;98757.88;4861283;29;20501;-88
2022/01/06 03:30:25;;;;;;;2.08;1.40;;;;;;;3.28;70.77;98838.44;4861358;29;20046;-89
2022/01/06 03:32:55;;;;;;;2.00;1.17;;;;;;;3.43;70.72;98858.84;4862725;29;20415;-89
2022/01/06 03:35:29;;;;;;;2.55;1.42;;;;;;;3.18;70.60;98818.97;4865078;29;20553;-88
2022/01/06 03:38:03;;;;;;;3.25;1.10;;;;;;;3.51;70.45;98876.56;4864602;29;20053;-88
2022/01/06 03:40:40;;;;;;;2.42;1.30;;;;;;;3.51;70.31;98882.47;4848584;29;20136;-89
2022/01/06 03:43:14;;;;;;;3.13;1.35;;;;;;;3.32;69.99;98860.34;4848974;29;20132;-89
2022/01/06 03:45:47;;;;;;;2.47;1.25;;;;;;;3.28;70.24;98848.53;4864672;29;20132;-88
2022/01/06 03:48:20;;;;;;;4.05;1.45;;;;;;;3.46;70.59;98891.66;4864379;29;20424;-89
2022/01/06 03:50:52;;;;;;;3.88;1.20;;;;;;;2.98;70.42;98813.63;4847870;29;20077;-89
2022/01/06 03:53:25;;;;;;;2.35;1.48;;;;;;;3.31;70.46;98883.88;4848450;29;20408;-88
2022/01/06 03:55:58;;;;;;;4.32;2.30;;;;;;;3.20;70.18;98860.16;4848132;29;20085;-88
2022/01/06 03:58:32;;;;;;;3.95;1.50;;;;;;;3.43;69.59;98906.75;4864669;29;20492;-89
2022/01/06 04:01:04;;;;;;;3.20;1.55;;;;;;;2.98;70.24;98832.94;4864640;29;20045;-90
2022/01/06 04:03:34;;;;;;;3.25;1.38;;;;;;;3.16;70.66;98871.88;4864286;29;20053;-89
2022/01/06 04:06:10;;;;;;;3.08;1.33;;;;;;;3.19;71.52;98878.66;4844463;29;20138;-89
2022/01/06 04:08:45;;;;;;;1.75;1.00;;;;;;;3.44;71.09;98900.88;4844566;29;20054;-88
2022/01/06 04:11:18;;;;;;;2.28;1.27;;;;;;;3.50;71.05;98895.94;4845888;29;20136;-89
2022/01/06 04:13:51;;;;;;;2.78;1.55;;;;;;;3.58;71.34;98906.97;4844634;29;20057;-89
2022/01/06 04:16:25;;;;;;;3.05;1.48;;;;;;;3.53;70.79;98895.94;4845689;29;20054;-88
2022/01/06 04:18:59;;;;;;;1.73;1.10;;;;;;;3.41;69.97;98870.56;4845624;29;20102;-89
2022/01/06 04:21:29;;;;;;;3.25;1.65;;;;;;;3.30;69.97;98867.03;4845643;29;20497;-89
2022/01/06 04:24:08;;;;;;;;;;;;;;;3.62;70.38;98911.25;4846274;29;20102;-89
2022/01/06 04:26:42;;;;;;;1.75;1.20;;;;;;;3.03;69.95;98812.03;4845759;29;19924;-89
2022/01/06 04:29:12;;;;;;;5.30;1.60;;;;;;;3.66;70.10;98902.88;4844464;29;20085;-89
2022/01/06 04:31:44;;;;;;;2.33;1.25;;;;;;;3.66;69.50;98912.97;4845675;29;20046;-89
2022/01/06 04:34:15;;;;;;;2.40;1.25;;;;;;;3.28;69.59;98853.56;4845319;29;20053;-89
2022/01/06 04:36:52;;;;;;;5.22;1.40;;;;;;;3.40;69.96;98863.84;4845300;29;20140;-89
2022/01/06 04:39:26;;;;;;;2.42;1.65;;;;;;;3.30;69.91;98856.97;4845110;29;20565;-89
2022/01/06 04:41:59;;;;;;;4.68;1.38;;;;;;;3.47;69.61;98884.94;4844604;29;20061;-89
2022/01/06 04:44:29;;;;;;;2.10;1.20;;;;;;;3.43;69.53;98868.06;4843181;29;20501;-90
2022/01/06 04:47:04;;;;;;;3.33;1.33;;;;;;;3.66;69.87;98912.97;4844937;29;20049;-88
2022/01/06 04:49:34;;;;;;;2.38;1.40;;;;;;;3.45;70.45;98889.97;4845000;29;20051;-88
2022/01/06 04:52:04;;;;;;;2.40;1.30;;;;;;;3.60;70.25;98912.88;4844933;29;20118;-89
2022/01/06 04:54:37;;;;;;;4.18;1.67;;;;;;;3.67;70.66;98913.84;4844974;29;20461;-89
2022/01/06 04:57:11;;;;;;;1.83;1.10;;;;;;;3.61;70.25;98894.41;4845519;29;20150;-89
2022/01/06 04:59:44;;;;;;;3.83;1.27;;;;;;;3.65;70.01;98895.28;4843778;29;20064;-88
2022/01/06 05:02:18;;;;;;;2.15;1.02;;;;;;;3.63;69.73;98917.97;4844105;29;20053;-88
2022/01/06 05:04:48;;;;;;;2.58;1.35;;;;;;;3.42;70.72;98894.97;4848142;29;20076;-89
2022/01/06 05:07:19;;;;;;;;;;;;;;;3.58;69.92;98909.47;4847623;29;20053;-90
2022/01/06 05:09:50;;;;;;;4.75;1.25;;;;;;;3.54;70.60;98927.94;4847075;29;19927;-89
2022/01/06 05:12:20;;;;;;;2.90;1.30;;;;;;;2.80;70.62;98793.19;4846370;29;20136;-88
2022/01/06 05:14:51;;;;;;;4.03;1.50;;;;;;;3.17;70.59;98865.16;4846681;29;20050;-89
2022/01/06 05:17:22;;;;;;;6.97;1.63;;;;;;;3.45;70.66;98935.38;4846252;29;20050;-89
2022/01/06 05:19:52;;;;;;;4.60;1.20;;;;;;;2.95;70.74;98853.06;4862886;29;20049;-89
2022/01/06 05:22:23;;;;;;;2.45;1.38;;;;;;;3.21;71.34;98892.13;4862950;29;20037;-88
2022/01/06 05:24:54;;;;;;;2.72;1.38;;;;;;;2.96;71.42;98857.25;4862764;29;20057;-88
2022/01/06 05:27:25;;;;;;;3.13;1.70;;;;;;;3.17;71.39;98892.88;4831661;29;20549;-89
2022/01/06 05:29:58;;;;;;;3.33;1.30;;;;;;;3.43;71.06;98934.50;4846337;29;20057;-89
2022/01/06 05:32:28;;;;;;;2.97;1.30;;;;;;;3.53;70.88;98950.63;4862284;29;20496;-88
2022/01/06 05:35:01;;;;;;;3.58;1.30;;;;;;;3.53;71.60;98964.06;4846474;29;20057;-89
2022/01/06 05:37:34;;;;;;;5.47;1.42;;;;;;;3.50;71.88;98955.63;4846424;29;20053;-89
2022/01/06 05:40:18;;;;;;;2.35;1.20;;;;;;;3.19;71.81;98903.84;4862591;29;20048;-88
2022/01/06 05:42:52;;;;;;;6.43;1.55;;;;;;;3.41;72.30;98953.78;4846068;29;20097;-89
2022/01/06 05:45:22;;;;;;;4.55;1.55;;;;;;;3.58;71.87;98975.06;4862509;29;20124;-89
2022/01/06 05:47:55;;;;;;;2.38;1.20;;;;;;;3.57;71.45;98968.34;4846060;29;20053;-89
2022/01/06 05:50:34;;;;;;;1.90;1.33;;;;;;;3.24;71.87;98913.16;4846168;29;20081;-88
2022/01/06 05:53:12;;;;;;;2.95;1.33;;;;;;;3.39;71.45;98953.75;4846682;29;20045;-89
2022/01/06 05:55:45;;;;;;;3.25;1.20;;;;;;;3.51;71.86;98978.31;4862076;29;20053;-89
2022/01/06 06:05:31;;;;;;;3.50;1.52;;;;;;;3.28;72.10;98989.72;4875502;29;20049;-87
2022/01/06 06:08:02;;;;;;;2.25;1.30;;;;;;;2.92;71.78;98936.16;4861154;29;20052;-89
2022/01/06 06:10:33;;;;;;;3.25;1.35;;;;;;;3.32;72.12;98993.97;4861232;29;20045;-87
2022/01/06 06:25:31;;;;;;;2.92;1.40;;;;;;;2.99;73.02;98975.75;5012335;23;20143;-88
2022/01/06 06:28:14;;;;;;;3.42;1.35;;;;;;;2.79;73.14;98941.78;4884473;29;20109;-88
2022/01/06 06:30:48;;;;;;;2.72;1.25;;;;;;;3.05;72.45;98981.75;4864498;29;20049;-89
2022/01/06 06:33:27;;;;;;;2.95;1.50;;;;;;;2.40;72.88;98872.25;4880256;29;20045;-89
2022/01/06 06:36:00;;;;;;;3.67;1.30;;;;;;;3.08;72.88;98979.28;4880560;29;20059;-89
2022/01/06 06:38:34;;;;;;;2.83;1.50;;;;;;;3.18;72.98;98997.94;4864488;29;20052;-89
2022/01/06 06:41:10;;;;;;;4.53;1.40;;;;;;;2.35;72.78;98851.19;4848198;29;20053;-90
2022/01/06 06:43:46;;;;;;;3.22;1.38;;;;;;;3.27;73.51;99013.22;4880315;29;20061;-89
2022/01/06 06:46:19;;;;;;;4.75;1.75;;;;;;;2.22;73.34;98849.28;4880624;29;20045;-88
2022/01/06 06:48:50;;;;;;;3.00;1.20;;;;;;;3.52;73.21;99035.53;4864289;29;20452;-89
2022/01/06 06:51:25;;;;;;;4.15;1.30;;;;;;;3.52;73.08;99045.63;4849557;29;20057;-89
2022/01/06 06:53:55;;;;;;;2.42;1.42;;;;;;;3.30;73.02;99008.25;4863657;29;20045;-89
2022/01/06 06:56:46;;;;;;;2.33;1.20;;;;;;;2.49;73.01;98892.59;4849202;29;20052;-89
2022/01/06 06:59:19;;;;;;;3.38;1.50;;;;;;;3.04;72.91;99005.28;4863758;29;20049;-90
2022/01/06 07:01:50;;;;;;;2.72;1.52;;;;;;;3.07;73.34;99029.69;4880356;29;20419;-88
2022/01/06 07:04:23;;;;;;;2.90;1.50;;;;;;;3.04;73.24;99034.66;4880021;29;20052;-89
2022/01/06 07:07:16;;;;;;;2.83;1.40;;;;;;;3.19;73.85;99055.13;4827029;29;20058;-89
2022/01/06 07:09:46;;;;;;;5.00;1.80;;;;;;;3.18;73.95;99053.41;4844998;29;20398;-88
2022/01/06 07:12:20;;;;;;;2.78;1.60;;;;;;;3.23;74.51;99061.91;4844934;29;20050;-87
2022/01/06 07:14:50;;;;;;;3.53;1.55;;;;;;;3.24;74.06;99066.09;4844801;29;20069;-89
2022/01/06 07:17:24;;;;;;;2.45;1.30;;;;;;;3.13;74.62;99047.44;4829526;29;20064;-89
2022/01/06 07:20:00;;;;;;;5.53;1.52;;;;;;;3.31;73.89;99061.19;4829621;29;20061;-89
2022/01/06 07:22:30;;;;;;;5.75;2.33;;;;;;;3.04;74.07;99010.31;4800477;29;20569;-87
2022/01/06 07:25:02;;;;;;;;;;;;;;;3.39;74.44;99068.91;4844786;29;20042;-89
2022/01/06 07:27:34;;;;;;;4.57;1.73;;;;;;;3.36;74.34;99049.53;4812032;29;19935;-89
2022/01/06 07:30:08;;;;;;;5.68;2.22;;;;;;;3.58;73.89;99075.97;4826355;29;20053;-89
2022/01/06 07:32:46;;;;;;;4.43;2.03;;;;;;;3.53;73.50;99062.44;4852401;29;20069;-89
2022/01/06 07:35:25;;;;;;;4.28;1.90;;;;;;;3.52;73.20;99050.66;4864789;29;20045;-89
2022/01/06 07:38:50;;;;;;;6.00;1.90;;;;;;;3.68;73.00;99072.78;4865030;29;20046;-89
2022/01/06 07:41:27;;;;;;;4.30;2.00;;;;;;;3.73;72.92;99081.28;4864730;29;20041;-89
2022/01/06 07:44:07;;;;;;;4.15;2.03;;;;;;;3.79;73.04;99086.41;4864646;29;20045;-89
2022/01/06 07:46:37;;;;;;;5.13;2.10;;;;;;;3.72;72.50;99076.22;4863692;29;20445;-89
2022/01/06 07:49:10;;;;;;;2.33;1.50;;;;;;;3.83;73.05;99088.19;4863471;29;20038;-88
2022/01/06 07:51:43;;;;;;;2.80;1.58;;;;;;;3.73;72.54;99071.19;4848212;29;20509;-88
2022/01/06 07:54:16;;;;;;;4.65;1.90;;;;;;;3.54;72.09;99033.88;4848228;29;20581;-88
2022/01/06 07:56:50;;;;;;;4.05;1.52;;;;;;;3.68;71.74;99036.59;4863345;29;20132;-88
2022/01/06 07:59:26;;;;;;;2.65;1.55;;;;;;;3.92;72.09;99057.19;4864300;29;20057;-89
2022/01/06 08:01:59;;;;;;;4.25;1.50;;;;;;;4.14;71.95;99088.66;4848234;29;20041;-88
2022/01/06 08:04:33;;;;;;;4.78;1.67;;;;;;;4.24;71.59;99090.50;4862942;29;20102;-88
2022/01/06 08:07:07;;;;;;;2.35;1.30;;;;;;;4.25;71.61;99082.09;4864328;29;20053;-89
2022/01/06 08:09:45;;;;;;;5.35;1.90;;;;;;;3.94;71.36;99041.25;4848137;29;20547;-88
2022/01/06 08:12:15;;;;;;;2.75;1.60;;;;;;;4.10;71.42;99051.56;4863247;29;20531;-88
2022/01/06 08:14:50;;;;;;;3.22;1.65;;;;;;;4.05;71.48;99034.66;4863042;29;20102;-87
2022/01/06 08:17:24;;;;;;;3.47;1.55;;;;;;;4.38;71.16;99091.53;4832927;29;20085;-88
2022/01/06 08:19:54;;;;;;;3.53;2.05;;;;;;;4.16;70.97;99057.56;4863885;29;20061;-88
2022/01/06 08:22:25;;;;;;;2.55;1.33;;;;;;;4.35;70.98;99086.44;4864265;29;20060;-88
2022/01/06 08:24:59;;;;;;;3.65;1.40;;;;;;;4.34;71.28;99093.19;4863840;29;20102;-87
2022/01/06 08:27:29;;;;;;;6.90;1.73;;;;;;;4.14;70.66;99058.34;4863788;29;20046;-88
2022/01/06 08:30:02;;;;;;;3.80;1.50;;;;;;;4.22;70.81;99066.91;4863669;29;20496;-89
2022/01/06 08:32:32;;;;;;;2.15;1.05;;;;;;;4.17;70.37;99045.78;4863588;29;20065;-88
2022/01/06 08:35:06;;;;;;;3.13;1.25;;;;;;;4.48;70.36;99095.91;4863863;29;20049;-88
2022/01/06 08:37:37;;;;;;;2.97;1.30;;;;;;;4.52;70.79;99090.03;4863733;29;20081;-88
2022/01/06 08:40:12;;;;;;;2.85;1.50;;;;;;;4.54;70.26;99096.81;4863641;29;20132;-88
2022/01/06 08:42:46;;;;;;;5.15;1.42;;;;;;;4.47;70.65;99079.03;4847595;29;20057;-88
2022/01/06 08:45:23;;;;;;;3.88;1.83;;;;;;;4.09;70.40;99040.63;4832529;29;20049;-88
2022/01/06 08:47:52;;;;;;;4.45;1.25;;;;;;;3.74;70.28;98966.91;4862757;29;20050;-89
2022/01/06 08:50:22;;;;;;;4.45;1.52;;;;;;;4.19;70.38;99057.59;4862288;29;20509;-89
2022/01/06 08:53:00;;;;;;;;;;;;;;;4.53;70.35;99115.34;4863748;29;20057;-89
2022/01/06 08:55:35;;;;;;;2.50;1.30;;;;;;;4.28;69.99;99066.97;4863363;29;19976;-89
2022/01/06 08:58:13;;;;;;;1.45;1.00;;;;;;;3.92;69.79;99022.69;4863283;29;20052;-89
2022/01/06 09:03:38;;;;;;;3.22;1.20;;;;;;;4.58;69.34;99123.00;4863248;29;20057;-89
2022/01/06 09:06:14;;;;;;;2.20;1.20;;;;;;;3.68;69.38;98964.28;4863744;29;20071;-88
2022/01/06 09:08:52;;;;;;;1.90;1.10;;;;;;;4.03;69.48;99027.91;4862943;29;20477;-89
2022/01/06 09:11:23;;;;;;;2.72;1.25;;;;;;;3.61;69.10;98949.91;4862885;29;20054;-88
2022/01/06 09:13:58;;;;;;;2.50;1.40;;;;;;;3.99;69.12;99016.06;4862981;29;20128;-89
2022/01/06 09:16:32;;;;;;;4.40;1.52;;;;;;;4.20;68.95;99063.50;4863609;23;20117;-90
2022/01/06 09:19:06;;;;;;;3.97;1.30;;;;;;;4.67;68.98;99128.16;4881890;29;20048;-89
2022/01/06 09:21:40;;;;;;;3.38;1.60;;;;;;;4.83;68.90;99135.13;4865097;29;20411;-88
2022/01/06 09:24:18;;;;;;;2.20;1.13;;;;;;;3.89;68.80;98964.59;4865330;29;20096;-89
2022/01/06 09:26:51;;;;;;;4.28;1.60;;;;;;;4.85;68.83;99125.88;4865141;29;20053;-89
2022/01/06 09:29:23;;;;;;;3.15;1.40;;;;;;;4.89;68.59;99119.19;4864977;29;20053;-89
2022/01/06 09:31:59;;;;;;;2.70;1.23;;;;;;;4.53;68.45;99063.97;4880620;29;20053;-88
2022/01/06 09:34:46;;;;;;;4.32;1.35;;;;;;;5.10;68.64;99120.31;4880162;29;20033;-88
2022/01/06 09:37:23;;;;;;;3.15;1.27;;;;;;;5.22;68.34;99107.78;4864604;29;20053;-87
2022/01/06 09:39:53;;;;;;;3.00;1.05;;;;;;;5.42;68.12;99133.31;4881081;29;20500;-88
2022/01/06 09:42:27;;;;;;;2.35;1.35;;;;;;;5.52;67.77;99132.56;4881093;29;20041;-88
2022/01/06 09:45:02;;;;;;;2.97;1.35;;;;;;;5.60;67.10;99112.38;4881172;29;20052;-88
2022/01/06 09:47:38;;;;;;;2.92;1.27;;;;;;;5.86;66.47;99138.81;4880918;29;20056;-88
2022/01/06 09:50:22;;;;;;;3.05;1.33;;;;;;;5.94;66.32;99134.69;4841454;29;20050;-89
2022/01/06 09:53:01;;;;;;;2.05;1.15;;;;;;;5.81;66.23;99148.03;4842127;29;20448;-88
2022/01/06 09:55:34;;;;;;;2.35;1.27;;;;;;;5.48;66.39;99113.13;4826802;29;20493;-88
2022/01/06 09:58:08;;;;;;;3.20;1.30;;;;;;;5.27;66.34;99103.63;4842178;29;20054;-88
2022/01/06 10:00:40;;;;;;;2.25;1.10;;;;;;;5.10;66.67;99092.47;4842326;29;20081;-88
2022/01/06 10:03:12;;;;;;;3.30;1.30;;;;;;;5.41;66.75;99150.16;4826906;29;20617;-87
2022/01/06 10:05:49;;;;;;;3.28;1.42;;;;;;;5.07;66.69;99109.28;4841905;29;20046;-88
2022/01/06 10:08:32;;;;;;;3.70;1.48;;;;;;;5.03;66.73;99113.47;4826784;29;20064;-89
2022/01/06 10:11:24;;;;;;;3.85;1.35;;;;;;;4.75;67.13;99061.72;4842271;29;20054;-88
2022/01/06 10:14:04;;;;;;;4.10;1.42;;;;;;;4.98;67.09;99109.19;4826880;29;20057;-88
2022/01/06 10:16:39;;;;;;;3.42;1.20;;;;;;;5.34;67.03;99168.66;4812044;29;20056;-88
2022/01/06 10:19:14;;;;;;;10.93;1.52;;;;;;;5.46;66.98;99159.47;4841671;29;20080;-88
2022/01/06 10:21:56;;;;;;;5.15;1.98;;;;;;;5.49;66.70;99159.53;4845535;29;20084;-88
2022/01/06 10:24:30;;;;;;;4.65;1.50;;;;;;;5.11;66.57;99101.75;4861317;29;20049;-88
2022/01/06 10:27:06;;;;;;;3.38;1.55;;;;;;;5.43;66.58;99135.84;4862012;29;20073;-87
2022/01/06 10:29:39;;;;;;;2.88;1.20;;;;;;;5.64;66.42;99160.53;4861055;29;20185;-87
2022/01/06 10:32:14;;;;;;;4.47;1.13;;;;;;;5.59;66.40;99151.22;4860725;29;20057;-88
2022/01/06 10:34:55;;;;;;;3.53;1.50;;;;;;;5.61;65.90;99164.72;4860908;29;20042;-87
2022/01/06 10:37:30;;;;;;;4.45;1.77;;;;;;;5.40;66.16;99125.69;4862071;29;20049;-87
2022/01/06 10:40:07;;;;;;;2.92;1.33;;;;;;;5.71;65.92;99161.47;4860593;29;20141;-88
2022/01/06 10:42:39;;;;;;;5.05;1.60;;;;;;;5.64;65.80;99147.03;4844209;29;20053;-88
2022/01/06 10:45:16;;;;;;;4.03;1.40;;;;;;;5.68;65.71;99154.69;4861019;29;20053;-88
2022/01/06 10:47:51;;;;;;;5.80;1.40;;;;;;;5.49;65.30;99119.03;4861670;29;20056;-88
2022/01/06 10:50:30;;;;;;;4.85;1.20;;;;;;;5.79;64.98;99114.25;4860795;29;20049;-88
2022/01/06 10:53:03;;;;;;;3.35;1.55;;;;;;;6.08;64.79;99120.47;4861761;29;20109;-87
2022/01/06 10:55:36;;;;;;;3.17;1.30;;;;;;;6.57;63.95;99135.19;4861666;29;20045;-88
2022/01/06 10:58:19;;;;;;;2.03;1.10;;;;;;;6.82;62.73;99150.53;4860978;29;20042;-87
2022/01/06 11:00:58;;;;;;;2.95;1.20;;;;;;;6.84;62.15;99110.81;4800382;29;20587;-87
2022/01/06 11:03:33;;;;;;;3.58;1.23;;;;;;;7.13;62.33;99153.22;4860304;29;20114;-87
2022/01/06 11:06:10;;;;;;;2.15;1.20;;;;;;;7.43;61.44;99152.50;4861235;29;20052;-87
2022/01/06 11:08:48;;;;;;;1.80;1.10;;;;;;;7.32;61.19;99114.38;4860452;29;20056;-86
2022/01/06 11:14:05;;;;;;;2.40;1.00;;;;;;;7.15;58.84;99066.97;4861208;29;20127;-87
2022/01/06 11:16:37;;;;;;;2.55;1.13;;;;;;;7.37;58.47;99111.84;4860018;29;20061;-88
2022/01/06 11:19:12;;;;;;;2.63;1.15;;;;;;;7.66;58.92;99155.09;4860436;29;20401;-88
2022/01/06 11:21:50;;;;;;;2.42;1.10;;;;;;;7.79;58.23;99167.84;4860160;29;20054;-87
2022/01/06 11:24:27;;;;;;;2.40;1.30;;;;;;;7.62;57.21;99174.56;4860467;29;20061;-88
2022/01/06 11:27:03;;;;;;;2.53;0.98;;;;;;;7.48;57.35;99173.69;4861291;29;20077;-88
2022/01/06 11:29:40;;;;;;;2.65;1.00;;;;;;;7.27;58.03;99176.16;4860169;29;20135;-88
2022/01/06 11:32:20;;;;;;;1.95;1.20;;;;;;;6.89;57.97;99096.44;4860613;29;20079;-88
2022/01/06 11:35:01;;;;;;;2.95;1.20;;;;;;;7.31;58.12;99177.84;4861320;29;20535;-88
2022/01/06 11:37:44;;;;;;;1.70;1.02;;;;;;;7.05;58.52;99171.81;4860040;29;20409;-88
2022/01/06 11:40:35;;;;;;;4.15;1.33;;;;;;;7.09;58.55;99181.13;4860321;29;20049;-88
2022/01/06 11:43:09;;;;;;;3.28;1.30;;;;;;;6.90;58.69;99170.03;4859827;29;20057;-88
2022/01/06 11:45:43;;;;;;;4.40;1.65;;;;;;;6.99;59.21;99174.28;4861328;29;20149;-88
2022/01/06 11:48:17;;;;;;;4.72;1.27;;;;;;;7.08;58.93;99164.22;4860549;29;20068;-87
2022/01/06 11:50:50;;;;;;;2.85;1.70;;;;;;;7.16;59.02;99152.38;4860952;29;20058;-87
2022/01/06 11:53:34;;;;;;;2.47;1.00;;;;;;;7.43;58.98;99171.13;4861612;29;20061;-87
2022/01/06 11:56:14;;;;;;;4.82;1.20;;;;;;;7.63;59.53;99150.84;4863071;29;20056;-86
2022/01/06 11:59:02;;;;;;;4.32;1.33;;;;;;;7.36;57.48;99064.50;4863252;29;20405;-87
2022/01/06 12:01:47;;;;;;;3.53;1.35;;;;;;;7.48;57.12;99092.44;4847815;29;20053;-87
2022/01/06 12:04:19;;;;;;;3.15;2.00;;;;;;;8.09;56.93;99169.56;4864068;29;20054;-86
2022/01/06 12:07:04;;;;;;;3.30;1.15;;;;;;;8.22;57.23;99162.78;4848267;29;20076;-86
2022/01/06 12:09:36;;;;;;;2.60;1.23;;;;;;;8.52;57.33;99167.88;4863109;29;20059;-86
2022/01/06 12:12:11;;;;;;;3.63;1.33;;;;;;;8.31;56.97;99122.13;4864985;23;20093;-86
2022/01/06 12:14:41;;;;;;;2.22;1.23;;;;;;;8.82;56.87;99172.94;4866994;29;20045;-86
2022/01/06 12:17:15;;;;;;;4.43;1.38;;;;;;;8.93;56.69;99181.41;4882552;29;20522;-86
2022/01/06 12:19:45;;;;;;;2.92;1.30;;;;;;;8.38;55.94;99149.25;4850505;29;20052;-87
2022/01/06 12:22:20;;;;;;;;;;;;;;;8.34;56.90;99178.06;4866043;29;20113;-87
2022/01/06 12:25:03;;;;;;;16.27;6.45;;;;;;;8.03;57.37;99180.59;4882203;29;19931;-87
2022/01/06 12:27:34;;;;;;;9.35;3.22;;;;;;;8.04;57.83;99182.25;4850843;29;20041;-86
2022/01/06 12:30:07;;;;;;;9.50;2.58;;;;;;;7.82;57.52;99184.78;4882374;29;20048;-87
2022/01/06 12:32:36;;;;;;;5.30;1.95;;;;;;;7.47;58.39;99169.44;4865646;29;20052;-87
2022/01/06 12:35:09;;;;;;;19.45;8.35;;;;;;;7.44;58.71;99175.34;4882318;29;20492;-87
2022/01/06 12:37:40;;;;;;;8.50;4.30;;;;;;;8.44;58.11;99174.69;4833925;29;20073;-86
2022/01/06 12:40:13;;;;;;;11.60;5.25;;;;;;;9.61;55.80;99158.22;4882053;29;20135;-86
2022/01/06 12:43:16;;;;;;;11.68;5.97;;;;;;;10.40;52.94;99148.34;4868276;29;20045;-86
2022/01/06 12:46:05;;;;;;;5.15;3.33;;;;;;;10.69;52.06;99181.25;4865487;29;20098;-86
2022/01/06 12:48:38;;;;;;;5.97;2.70;;;;;;;10.05;51.71;99181.72;4865749;29;20045;-86
2022/01/06 12:51:10;;;;;;;9.05;3.58;;;;;;;8.72;53.61;99156.00;4865239;29;20056;-87
2022/01/06 12:53:46;;;;;;;23.52;10.98;;;;;;;7.51;55.34;99115.28;4881823;29;20059;-87